createdAt,value
2022-12-01T00:04:11.116Z,44.60
2022-12-01T00:09:35.689Z,44.40
2022-12-01T00:14:42.552Z,40.40
2022-12-01T00:19:49.787Z,41.30
2022-12-01T00:24:57.247Z,40.90
2022-12-01T00:30:05.033Z,39.20
2022-12-01T00:35:12.383Z,40.70
2022-12-01T00:40:19.116Z,43.20
2022-12-01T00:45:25.931Z,42.70
2022-12-01T00:50:32.862Z,42.40
2022-12-01T00:55:40.307Z,44.20
2022-12-01T01:00:47.157Z,41.60
2022-12-01T01:05:53.977Z,43.70
2022-12-01T01:11:02.198Z,43.00
2022-12-01T01:16:14.611Z,36.70
2022-12-01T01:26:31.130Z,36.60
2022-12-01T01:31:38.413Z,38.40
2022-12-01T01:36:46.161Z,33.60
2022-12-01T01:41:53.047Z,37.20
2022-12-01T01:46:59.996Z,38.90
2022-12-01T01:52:07.340Z,40.70
2022-12-01T01:57:16.411Z,36.40
2022-12-01T02:02:23.320Z,38.20
2022-12-01T02:07:30.354Z,37.90
2022-12-01T02:12:57.162Z,36.60
2022-12-01T02:18:14.705Z,37.50
2022-12-01T02:23:49.670Z,38.50
2022-12-01T02:29:18.417Z,37.10
2022-12-01T02:34:31.114Z,38.80
2022-12-01T02:39:45.171Z,39.50
2022-12-01T02:44:52.377Z,42.90
2022-12-01T02:50:02.882Z,42.90
2022-12-01T02:55:10.737Z,42.10
2022-12-01T03:00:19.906Z,42.30
2022-12-01T03:05:32.379Z,47.50
2022-12-01T03:10:49.303Z,47.00
2022-12-01T03:16:02.885Z,45.60
2022-12-01T03:21:15.896Z,46.90
2022-12-01T03:26:25.434Z,44.60
2022-12-01T03:31:40.780Z,44.20
2022-12-01T03:36:52.425Z,44.90
2022-12-01T03:42:03.474Z,45.00
2022-12-01T03:47:14.256Z,43.10
2022-12-01T03:52:35.139Z,45.20
2022-12-01T03:57:47.454Z,48.50
2022-12-01T04:02:59.574Z,49.20
2022-12-01T04:13:22.238Z,46.30
2022-12-01T04:18:29.062Z,49.80
2022-12-01T04:23:53.525Z,49.30
2022-12-01T04:29:01.348Z,50.10
2022-12-01T04:34:09.400Z,48.60
2022-12-01T04:39:16.597Z,48.00
2022-12-01T04:44:23.358Z,46.10
2022-12-01T04:49:30.271Z,47.10
2022-12-01T04:54:37.212Z,46.10
2022-12-01T04:59:43.991Z,47.40
2022-12-01T05:04:51.068Z,46.90
2022-12-01T05:09:58.102Z,46.80
2022-12-01T05:15:05.728Z,46.10
2022-12-01T05:20:39.743Z,44.50
2022-12-01T05:25:46.759Z,38.50
2022-12-01T05:30:57.745Z,45.50
2022-12-01T05:36:05.704Z,48.30
2022-12-01T05:41:13.030Z,50.10
2022-12-01T05:46:20.195Z,49.40
2022-12-01T05:51:27.038Z,53.10
2022-12-01T05:56:35.333Z,51.30
2022-12-01T06:01:42.254Z,51.50
2022-12-01T06:06:49.170Z,48.50
2022-12-01T06:11:56.002Z,51.20
2022-12-01T06:17:03.079Z,53.40
2022-12-01T06:22:10.136Z,50.70
2022-12-01T06:27:17.207Z,52.00
2022-12-01T06:32:24.075Z,56.00
2022-12-01T06:37:32.929Z,50.70
2022-12-01T06:42:39.980Z,53.10
2022-12-01T06:47:50.844Z,52.70
2022-12-01T06:52:59.360Z,52.90
2022-12-01T06:58:06.850Z,52.00
2022-12-01T07:03:13.855Z,51.70
2022-12-01T07:08:22.542Z,51.70
2022-12-01T07:13:33.374Z,51.10
2022-12-01T07:18:40.749Z,52.10
2022-12-01T07:23:47.530Z,49.00
2022-12-01T07:28:55.660Z,48.00
2022-12-01T07:34:02.563Z,51.50
2022-12-01T07:39:10.534Z,51.90
2022-12-01T07:44:17.524Z,48.00
2022-12-01T07:49:24.381Z,47.30
2022-12-01T07:54:31.160Z,48.30
2022-12-01T07:59:37.926Z,49.20
2022-12-01T08:04:45.433Z,49.30
2022-12-01T08:09:52.221Z,44.80
2022-12-01T08:14:58.962Z,47.60
2022-12-01T08:20:06.693Z,48.70
2022-12-01T08:25:13.712Z,43.50
2022-12-01T08:30:21.016Z,45.00
2022-12-01T08:35:28.334Z,45.10
2022-12-01T08:40:35.592Z,44.50
2022-12-01T08:45:42.502Z,42.10
2022-12-01T08:50:49.409Z,44.50
2022-12-01T08:55:56.310Z,45.00
2022-12-01T09:01:08.850Z,45.00
2022-12-01T09:06:20.232Z,42.70
2022-12-01T09:11:27.452Z,43.40
2022-12-01T09:16:34.723Z,39.30
2022-12-01T09:21:42.773Z,42.50
2022-12-01T09:26:49.941Z,41.40
2022-12-01T09:32:00.401Z,40.80
2022-12-01T09:37:07.748Z,39.70
2022-12-01T09:42:18.637Z,39.70
2022-12-01T09:47:30.875Z,46.30
2022-12-01T09:52:45.120Z,43.90
2022-12-01T09:58:04.741Z,40.70
2022-12-01T10:03:26.124Z,39.30
2022-12-01T10:08:38.279Z,40.30
2022-12-01T10:13:45.283Z,38.70
2022-12-01T10:19:01.186Z,38.10
2022-12-01T10:24:26.224Z,40.60
2022-12-01T10:29:45.063Z,44.20
2022-12-01T10:34:54.502Z,40.80
2022-12-01T10:40:01.477Z,39.70
2022-12-01T10:45:15.299Z,39.30
2022-12-01T10:50:29.026Z,34.70
2022-12-01T10:55:43.467Z,37.30
2022-12-01T11:01:01.241Z,34.90
2022-12-01T11:06:10.071Z,34.00
2022-12-01T11:11:29.165Z,34.90
2022-12-01T11:16:43.397Z,32.50
2022-12-01T11:21:52.632Z,32.60
2022-12-01T11:27:01.237Z,35.60
2022-12-01T11:32:20.678Z,36.00
2022-12-01T11:37:33.822Z,39.00
2022-12-01T11:42:42.071Z,36.50
2022-12-01T11:48:04.533Z,35.30
2022-12-01T11:53:29.147Z,37.50
2022-12-01T11:58:36.359Z,33.80
2022-12-01T12:03:53.368Z,32.70
2022-12-01T12:09:15.831Z,32.50
2022-12-01T12:14:48.711Z,33.20
2022-12-01T12:20:09.669Z,30.80
2022-12-01T12:25:28.915Z,29.30
2022-12-01T12:30:44.205Z,27.20
2022-12-01T12:36:03.547Z,78.20
2022-12-01T12:41:22.755Z,30.20
2022-12-01T12:46:37.431Z,28.80
2022-12-01T12:51:50.634Z,29.30
2022-12-01T12:57:07.704Z,29.60
2022-12-01T13:02:19.458Z,31.80
2022-12-01T13:07:35.699Z,33.70
2022-12-01T13:12:50.594Z,37.60
2022-12-01T13:18:03.413Z,31.50
2022-12-01T13:23:16.235Z,21.20
2022-12-01T13:28:26.285Z,21.10
2022-12-01T13:33:34.759Z,21.40
2022-12-01T13:38:43.671Z,21.10
2022-12-01T13:43:58.007Z,22.60
2022-12-01T13:49:31.819Z,22.80
2022-12-01T13:54:40.687Z,22.50
2022-12-01T14:00:25.195Z,22.70
2022-12-01T14:05:57.091Z,23.20
2022-12-01T14:11:07.605Z,20.50
2022-12-01T14:16:14.813Z,21.20
2022-12-01T14:21:44.254Z,22.70
2022-12-01T14:26:54.897Z,22.10
2022-12-01T14:32:22.974Z,21.60
2022-12-01T14:37:38.120Z,20.90
2022-12-01T14:43:06.866Z,27.20
2022-12-01T14:48:19.639Z,24.20
2022-12-01T14:53:31.798Z,36.40
2022-12-01T14:58:38.865Z,35.00
2022-12-01T15:03:49.497Z,25.70
2022-12-01T15:09:32.782Z,25.30
2022-12-01T15:14:48.069Z,24.40
2022-12-01T15:19:57.230Z,23.90
2022-12-01T15:25:15.155Z,66.40
2022-12-01T15:30:24.942Z,24.80
2022-12-01T15:35:35.742Z,23.10
2022-12-01T15:41:27.819Z,22.60
2022-12-01T15:46:30.149Z,21.30
2022-12-01T15:51:39.157Z,20.70
2022-12-01T15:56:52.547Z,21.70
2022-12-01T16:02:02.050Z,25.80
2022-12-01T16:07:12.308Z,25.20
2022-12-01T16:12:27.515Z,23.50
2022-12-01T16:17:45.474Z,38.20
2022-12-01T16:22:58.908Z,25.20
2022-12-01T16:28:07.817Z,25.60
2022-12-01T16:33:19.647Z,27.70
2022-12-01T16:38:29.826Z,27.50
2022-12-01T16:43:39.520Z,25.40
2022-12-01T16:48:46.690Z,29.10
2022-12-01T16:53:54.041Z,24.60
2022-12-01T16:59:02.623Z,24.90
2022-12-01T17:04:12.781Z,23.40
2022-12-01T17:09:20.271Z,25.50
2022-12-01T17:14:28.116Z,24.00
2022-12-01T17:19:35.918Z,23.60
2022-12-01T17:24:43.154Z,24.20
2022-12-01T17:29:50.153Z,25.10
2022-12-01T17:34:57.497Z,24.90
2022-12-01T17:40:04.740Z,23.00
2022-12-01T17:45:12.998Z,17.60
2022-12-01T17:50:20.022Z,19.50
2022-12-01T17:55:27.373Z,18.90
2022-12-01T18:00:37.674Z,16.60
2022-12-01T18:05:45.123Z,16.90
2022-12-01T18:10:54.657Z,16.50
2022-12-01T18:16:06.632Z,18.30
2022-12-01T18:21:16.237Z,17.00
2022-12-01T18:26:24.576Z,19.80
2022-12-01T18:31:33.148Z,21.30
2022-12-01T18:36:41.861Z,21.60
2022-12-01T18:41:49.656Z,20.80
2022-12-01T18:46:59.055Z,20.00
2022-12-01T18:52:06.164Z,23.60
2022-12-01T18:57:14.690Z,28.00
2022-12-01T19:02:22.286Z,24.00
2022-12-01T19:07:30.230Z,23.80
2022-12-01T19:12:41.272Z,23.70
2022-12-01T19:17:48.675Z,21.40
2022-12-01T19:22:55.601Z,24.40
2022-12-01T19:28:02.701Z,26.50
2022-12-01T19:33:14.015Z,26.10
2022-12-01T19:38:27.509Z,22.20
2022-12-01T19:43:35.944Z,21.30
2022-12-01T19:48:43.271Z,23.10
2022-12-01T19:53:51.071Z,29.20
2022-12-01T19:58:58.773Z,29.10
2022-12-01T20:04:09.569Z,33.90
2022-12-01T20:09:16.555Z,29.50
2022-12-01T20:14:23.599Z,24.80
2022-12-01T20:19:30.613Z,29.50
2022-12-01T20:24:39.764Z,29.30
2022-12-01T20:29:46.897Z,29.30
2022-12-01T20:34:54.036Z,32.10
2022-12-01T20:40:01.246Z,33.80
2022-12-01T20:45:08.960Z,32.90
2022-12-01T20:50:16.084Z,32.20
2022-12-01T20:55:24.603Z,29.50
2022-12-01T21:00:31.579Z,30.70
2022-12-01T21:05:41.799Z,33.20
2022-12-01T21:10:48.889Z,33.30
2022-12-01T21:16:03.600Z,29.30
2022-12-01T21:21:22.571Z,28.20
2022-12-01T21:26:29.448Z,32.30
2022-12-01T21:31:36.457Z,31.20
2022-12-01T21:36:43.334Z,26.70
2022-12-01T21:41:52.173Z,36.20
2022-12-01T21:47:01.564Z,26.60
2022-12-01T21:52:18.852Z,23.10
2022-12-01T21:57:38.539Z,38.80
2022-12-01T22:02:52.729Z,31.70
2022-12-01T22:08:11.294Z,25.20
2022-12-01T22:13:19.113Z,27.60
2022-12-01T22:18:30.744Z,30.20
2022-12-01T22:23:38.038Z,22.60
2022-12-01T22:28:45.355Z,31.90
2022-12-01T22:34:01.555Z,35.40
2022-12-01T22:39:29.773Z,65.50
2022-12-01T22:44:36.744Z,42.40
2022-12-01T22:49:44.525Z,38.80
2022-12-01T22:54:52.726Z,46.10
2022-12-01T23:00:02.576Z,47.70
2022-12-01T23:05:22.800Z,56.30
2022-12-01T23:10:32.698Z,35.20
2022-12-01T23:15:40.959Z,32.90
2022-12-01T23:20:51.950Z,38.00
2022-12-01T23:25:59.507Z,34.90
2022-12-01T23:31:06.599Z,37.60
2022-12-01T23:36:16.795Z,35.40
2022-12-01T23:41:28.883Z,30.50
2022-12-01T23:46:36.132Z,28.40
2022-12-01T23:51:48.711Z,29.90
2022-12-01T23:56:58.428Z,31.80
